Nearby METAR Reports

KLNK - Lincoln, Nebraska, USA
Distance from station: WNW 8mi, 13km
Updated: Wed, 12-Jun-2024 5:54pm CDT
Clear
Clear
 Wind from S
Wind: S 21 mph, 33 km/h, Gust: 35 mph, 56 km/h
Temperature: 93°F, 34°C
Dew Point: 64°F, 18°C
Humidity: 39%
Barometer: 29.73 inHg, 1006.8 hPa
Clouds: Clear
Visibility: 10 miles, 16 km
2024/06/12 22:54 KLNK 122254Z 19018G30KT 10SM CLR 34/18 A2973 RMK AO2 PK WND 20030/2212 SLP055 T03390183
KAHQ - Wahoo, Nebraska, USA
Distance from station: N 31mi, 49km
Updated: Wed, 12-Jun-2024 6:35pm CDT
Clear
Clear
 Wind from S
Wind: S 20 mph, 31 km/h, Gust: 25 mph, 41 km/h
Temperature: 93°F, 34°C
Heat Index: 96°F, 36°C
Dew Point: 66°F, 19°C
Humidity: 41%
Barometer: 29.71 inHg, 1006.1 hPa
Clouds: Clear
Visibility: 10 miles, 16 km
2024/06/12 23:35 KAHQ 122335Z AUTO 18017G22KT 10SM CLR 34/19 A2971 RMK AO2 T03360185
 
KBIE - Beatrice Municip, Nebraska, USA
Distance from station: S 36mi, 57km
Updated: Wed, 12-Jun-2024 6:15pm CDT
Clear
Clear
 Wind from SSW
Wind: SSW 23 mph, 37 km/h
Temperature: 91°F, 33°C
Heat Index: 93°F, 34°C
Dew Point: 64°F, 18°C
Humidity: 41%
Barometer: 29.76 inHg, 1007.8 hPa
Clouds: Clear
Visibility: 10 miles, 16 km
2024/06/12 23:15 KBIE 122315Z AUTO 20020KT 10SM CLR 33/18 A2976 RMK AO2 T03300183
KMLE - Omaha/Millard, Nebraska, USA
Distance from station: NE 39mi, 63km
Updated: Wed, 12-Jun-2024 6:15pm CDT
Clear
Clear
 Wind from S
Wind: S 16 mph, 26 km/h, Gust: 22 mph, 35 km/h
Temperature: 91°F, 33°C
Heat Index: 93°F, 34°C
Dew Point: 64°F, 18°C
Humidity: 41%
Barometer: 29.73 inHg, 1006.8 hPa
Clouds: Clear
Visibility: 10 miles, 16 km
2024/06/12 23:15 KMLE 122315Z AUTO 19014G19KT 10SM CLR 33/18 A2973 RMK AO2 T03320179
 
KPMV - Plattsmouth Muni, Nebraska, USA
Distance from station: ENE 39mi, 63km
Updated: Wed, 12-Jun-2024 6:15pm CDT
Clear
Clear
 Wind from S
Wind: S 21 mph, 33 km/h, Gust: 28 mph, 44 km/h
Temperature: 90°F, 32°C
Heat Index: 92°F, 33°C
Dew Point: 64°F, 18°C
Humidity: 43%
Barometer: 29.76 inHg, 1007.8 hPa
Clouds: Clear
Visibility: 10 miles, 16 km
2024/06/12 23:15 KPMV 122315Z AUTO 18018G24KT 10SM CLR 32/18 A2976 RMK AO2 T03200181
KAFK - Nebraska City, Nebraska, USA
Distance from station: ESE 43mi, 69km
Updated: Wed, 12-Jun-2024 6:35pm CDT
Clear
Clear
 Wind from SSW
Wind: SSW 16 mph, 26 km/h, Gust: 26 mph, 43 km/h
Temperature: 90°F, 32°C
Heat Index: 93°F, 34°C
Dew Point: 66°F, 19°C
Humidity: 46%
Barometer: 29.78 inHg, 1008.5 hPa
Clouds: Clear
Visibility: 10 miles, 16 km
2024/06/12 23:35 KAFK 122335Z AUTO 21014G23KT 10SM CLR 32/19 A2978 RMK AO2 T03150186
 
KOFF - Offutt Afb/Belle, Nebraska, USA
Distance from station: ENE 44mi, 70km
Updated: Wed, 12-Jun-2024 5:55pm CDT
Few Clouds
Few Clouds
 Wind from S
Wind: S 21 mph, 33 km/h, Gust: 25 mph, 41 km/h
Temperature: 93°F, 34°C
Dew Point: 64°F, 18°C
Humidity: 39%
Barometer: 29.74 inHg, 1007.1 hPa
Clouds: Few Clouds
Visibility: 10 miles, 16 km
Cloud details: Few Clouds 25000 ft
2024/06/12 22:55 KOFF 122255Z 17018G22KT 10SM FEW250 34/18 A2974 RMK AO2A PK WND 18028/00 SLP063 T03380175
KFET - Fremont Muni Arp, Nebraska, USA
Distance from station: N 46mi, 74km
Updated: Wed, 12-Jun-2024 6:15pm CDT
Clear
Clear
 Wind from S
Wind: S 14 mph, 22 km/h, Gust: 23 mph, 37 km/h
Temperature: 93°F, 34°C
Dew Point: 64°F, 18°C
Humidity: 39%
Barometer: 29.71 inHg, 1006.1 hPa
Clouds: Clear
Visibility: 10 miles, 16 km
2024/06/12 23:15 KFET 122315Z AUTO 17012G20KT 10SM CLR 34/18 A2971 RMK AO2 T03350177
 
KBTA - Blair Muni, Nebraska, USA
Distance from station: NNE 51mi, 82km
Updated: Wed, 12-Jun-2024 6:15pm CDT
Clear
Clear
 Wind from S
Wind: S 16 mph, 26 km/h, Gust: 25 mph, 41 km/h
Temperature: 91°F, 33°C
Heat Index: 94°F, 34°C
Dew Point: 66°F, 19°C
Humidity: 44%
Barometer: 29.74 inHg, 1007.1 hPa
Clouds: Clear
Visibility: 10 miles, 16 km
2024/06/12 23:15 KBTA 122315Z AUTO 17014G22KT 10SM CLR 33/19 A2974 RMK AO2 T03280187
KJYR - York, Nebraska, USA
Distance from station: W 52mi, 84km
Updated: Wed, 12-Jun-2024 6:15pm CDT
Clear
Clear
 Wind from SSW
Wind: SSW 20 mph, 31 km/h
Temperature: 93°F, 34°C
Dew Point: 64°F, 18°C
Humidity: 39%
Barometer: 29.71 inHg, 1006.1 hPa
Clouds: Clear
Visibility: 9 miles, 14 km
2024/06/12 23:15 KJYR 122315Z AUTO 20017KT 9SM CLR 34/18 A2971 RMK AO2
 
KOMA - Omaha/Eppley, Nebraska, USA
Distance from station: NE 53mi, 85km
Updated: Wed, 12-Jun-2024 5:52pm CDT
Few Clouds
Few Clouds
 Wind from S
Wind: S 18 mph, 30 km/h, Gust: 26 mph, 43 km/h
Temperature: 91°F, 33°C
Heat Index: 93°F, 34°C
Dew Point: 64°F, 18°C
Humidity: 41%
Barometer: 29.74 inHg, 1007.1 hPa
Clouds: Few Clouds
Visibility: 10 miles, 16 km
Cloud details: Few Clouds 9000 ft
Few Clouds 25000 ft
2024/06/12 22:52 KOMA 122252Z 18016G23KT 10SM FEW090 FEW250 33/18 A2974 RMK AO2 PK WND 18033/2239 SLP060 T03330183
KOLU - Columbus Muni, Nebraska, USA
Distance from station: NW 58mi, 93km
Updated: Wed, 12-Jun-2024 5:56pm CDT
Few Clouds
Few Clouds
 Wind from SSW
Wind: SSW 14 mph, 22 km/h, Gust: 22 mph, 35 km/h
Temperature: 97°F, 36°C
Heat Index: 104°F, 40°C
Dew Point: 70°F, 21°C
Humidity: 42%
Barometer: 29.69 inHg, 1005.4 hPa
Clouds: Few Clouds
Cloud details: Few Clouds 8500 ft
2024/06/12 22:56 KOLU 122256Z AUTO 20012G19KT FEW085 36/21 A2969 RMK AO2 SLP040 T03610206 PWINO $